sensor_id;sensor_type;location;lat;lon;timestamp;P1;durP1;ratioP1;P2;durP2;ratioP2
15055;SDS011;7626;42.674;23.284;2024-03-08T00:00:18;2.47;;;2.27;;
15055;SDS011;7626;42.674;23.284;2024-03-08T00:02:46;3.77;;;3.03;;
15055;SDS011;7626;42.674;23.284;2024-03-08T00:05:17;7.93;;;6.20;;
15055;SDS011;7626;42.674;23.284;2024-03-08T00:07:45;4.20;;;3.63;;
15055;SDS011;7626;42.674;23.284;2024-03-08T00:10:13;3.40;;;2.57;;
15055;SDS011;7626;42.674;23.284;2024-03-08T00:12:41;2.67;;;2.20;;
15055;SDS011;7626;42.674;23.284;2024-03-08T00:15:09;2.60;;;2.40;;
15055;SDS011;7626;42.674;23.284;2024-03-08T00:17:40;3.13;;;2.37;;
15055;SDS011;7626;42.674;23.284;2024-03-08T00:20:08;2.60;;;2.33;;
15055;SDS011;7626;42.674;23.284;2024-03-08T00:22:36;3.37;;;2.57;;
15055;SDS011;7626;42.674;23.284;2024-03-08T00:25:04;3.10;;;2.80;;
15055;SDS011;7626;42.674;23.284;2024-03-08T00:27:31;3.50;;;2.90;;
15055;SDS011;7626;42.674;23.284;2024-03-08T00:29:57;3.20;;;2.87;;
15055;SDS011;7626;42.674;23.284;2024-03-08T00:32:27;3.17;;;2.80;;
15055;SDS011;7626;42.674;23.284;2024-03-08T00:34:54;3.43;;;2.80;;
15055;SDS011;7626;42.674;23.284;2024-03-08T00:37:22;2.83;;;2.20;;
15055;SDS011;7626;42.674;23.284;2024-03-08T00:39:51;2.60;;;1.93;;
15055;SDS011;7626;42.674;23.284;2024-03-08T00:42:18;4.73;;;2.20;;
15055;SDS011;7626;42.674;23.284;2024-03-08T00:44:45;1.67;;;1.57;;
15055;SDS011;7626;42.674;23.284;2024-03-08T00:47:14;2.37;;;1.90;;
15055;SDS011;7626;42.674;23.284;2024-03-08T00:49:43;2.40;;;1.80;;
15055;SDS011;7626;42.674;23.284;2024-03-08T00:52:11;1.90;;;1.70;;
15055;SDS011;7626;42.674;23.284;2024-03-08T00:54:38;1.60;;;1.50;;
15055;SDS011;7626;42.674;23.284;2024-03-08T00:57:06;1.37;;;1.27;;
15055;SDS011;7626;42.674;23.284;2024-03-08T00:59:33;1.90;;;1.70;;
15055;SDS011;7626;42.674;23.284;2024-03-08T01:02:01;1.57;;;1.47;;
15055;SDS011;7626;42.674;23.284;2024-03-08T01:04:29;2.00;;;1.60;;
15055;SDS011;7626;42.674;23.284;2024-03-08T01:06:58;1.77;;;1.57;;
15055;SDS011;7626;42.674;23.284;2024-03-08T01:09:25;1.57;;;1.43;;
15055;SDS011;7626;42.674;23.284;2024-03-08T01:11:53;1.93;;;1.73;;
15055;SDS011;7626;42.674;23.284;2024-03-08T01:14:22;1.73;;;1.63;;
15055;SDS011;7626;42.674;23.284;2024-03-08T01:16:50;1.80;;;1.70;;
15055;SDS011;7626;42.674;23.284;2024-03-08T01:19:17;2.30;;;1.97;;
15055;SDS011;7626;42.674;23.284;2024-03-08T01:21:45;2.90;;;2.00;;
15055;SDS011;7626;42.674;23.284;2024-03-08T01:24:14;4.30;;;1.67;;
15055;SDS011;7626;42.674;23.284;2024-03-08T01:26:42;1.73;;;1.60;;
15055;SDS011;7626;42.674;23.284;2024-03-08T01:29:11;1.60;;;1.50;;
15055;SDS011;7626;42.674;23.284;2024-03-08T01:31:39;1.77;;;1.50;;
15055;SDS011;7626;42.674;23.284;2024-03-08T01:34:06;1.93;;;1.80;;
15055;SDS011;7626;42.674;23.284;2024-03-08T01:36:34;3.10;;;2.67;;
15055;SDS011;7626;42.674;23.284;2024-03-08T01:39:03;4.83;;;4.17;;
15055;SDS011;7626;42.674;23.284;2024-03-08T01:41:34;3.10;;;2.60;;
15055;SDS011;7626;42.674;23.284;2024-03-08T01:44:01;2.23;;;2.00;;
15055;SDS011;7626;42.674;23.284;2024-03-08T01:46:29;2.20;;;2.00;;
15055;SDS011;7626;42.674;23.284;2024-03-08T01:48:56;1.77;;;1.60;;
15055;SDS011;7626;42.674;23.284;2024-03-08T01:51:24;1.80;;;1.70;;
15055;SDS011;7626;42.674;23.284;2024-03-08T01:53:51;2.17;;;1.60;;
15055;SDS011;7626;42.674;23.284;2024-03-08T01:56:19;1.60;;;1.43;;
15055;SDS011;7626;42.674;23.284;2024-03-08T01:58:47;1.77;;;1.60;;
15055;SDS011;7626;42.674;23.284;2024-03-08T02:01:15;1.70;;;1.60;;
15055;SDS011;7626;42.674;23.284;2024-03-08T02:03:45;2.03;;;1.50;;
15055;SDS011;7626;42.674;23.284;2024-03-08T02:06:13;2.10;;;1.77;;
15055;SDS011;7626;42.674;23.284;2024-03-08T02:08:41;9.03;;;6.60;;
15055;SDS011;7626;42.674;23.284;2024-03-08T02:11:10;6.50;;;4.80;;
15055;SDS011;7626;42.674;23.284;2024-03-08T02:13:38;4.17;;;3.57;;
15055;SDS011;7626;42.674;23.284;2024-03-08T02:16:07;3.13;;;2.60;;
15055;SDS011;7626;42.674;23.284;2024-03-08T02:18:34;2.20;;;2.00;;
15055;SDS011;7626;42.674;23.284;2024-03-08T02:21:04;2.43;;;2.20;;
15055;SDS011;7626;42.674;23.284;2024-03-08T02:23:32;7.80;;;6.10;;
15055;SDS011;7626;42.674;23.284;2024-03-08T02:26:00;6.00;;;4.87;;
15055;SDS011;7626;42.674;23.284;2024-03-08T02:28:27;14.40;;;11.10;;
15055;SDS011;7626;42.674;23.284;2024-03-08T02:30:55;9.23;;;7.83;;
15055;SDS011;7626;42.674;23.284;2024-03-08T02:33:22;6.27;;;4.37;;
15055;SDS011;7626;42.674;23.284;2024-03-08T02:35:50;4.93;;;3.43;;
15055;SDS011;7626;42.674;23.284;2024-03-08T02:38:18;2.80;;;2.60;;
15055;SDS011;7626;42.674;23.284;2024-03-08T02:40:48;2.43;;;2.20;;
15055;SDS011;7626;42.674;23.284;2024-03-08T02:43:17;2.13;;;1.93;;
15055;SDS011;7626;42.674;23.284;2024-03-08T02:45:45;4.10;;;2.03;;
15055;SDS011;7626;42.674;23.284;2024-03-08T02:48:11;2.37;;;2.10;;
15055;SDS011;7626;42.674;23.284;2024-03-08T02:50:40;2.23;;;1.80;;
15055;SDS011;7626;42.674;23.284;2024-03-08T02:53:08;1.80;;;1.70;;
15055;SDS011;7626;42.674;23.284;2024-03-08T02:55:37;1.53;;;1.43;;
15055;SDS011;7626;42.674;23.284;2024-03-08T02:58:05;1.20;;;1.10;;
15055;SDS011;7626;42.674;23.284;2024-03-08T03:00:35;1.53;;;1.20;;
15055;SDS011;7626;42.674;23.284;2024-03-08T03:03:02;1.33;;;1.20;;
15055;SDS011;7626;42.674;23.284;2024-03-08T03:05:29;1.00;;;1.00;;
15055;SDS011;7626;42.674;23.284;2024-03-08T03:07:57;1.23;;;1.10;;
15055;SDS011;7626;42.674;23.284;2024-03-08T03:10:25;1.40;;;1.10;;
15055;SDS011;7626;42.674;23.284;2024-03-08T03:12:53;1.40;;;1.20;;
15055;SDS011;7626;42.674;23.284;2024-03-08T03:15:20;1.30;;;1.20;;
15055;SDS011;7626;42.674;23.284;2024-03-08T03:17:49;1.40;;;1.30;;
15055;SDS011;7626;42.674;23.284;2024-03-08T03:20:17;1.77;;;1.30;;
15055;SDS011;7626;42.674;23.284;2024-03-08T03:22:49;2.23;;;1.20;;
15055;SDS011;7626;42.674;23.284;2024-03-08T03:25:19;1.83;;;1.40;;
15055;SDS011;7626;42.674;23.284;2024-03-08T03:27:50;2.87;;;1.70;;
15055;SDS011;7626;42.674;23.284;2024-03-08T03:30:19;1.50;;;1.40;;
15055;SDS011;7626;42.674;23.284;2024-03-08T03:32:47;2.03;;;1.60;;
15055;SDS011;7626;42.674;23.284;2024-03-08T03:35:16;2.13;;;1.50;;
15055;SDS011;7626;42.674;23.284;2024-03-08T03:37:44;1.57;;;1.43;;
15055;SDS011;7626;42.674;23.284;2024-03-08T03:40:16;2.07;;;1.33;;
15055;SDS011;7626;42.674;23.284;2024-03-08T03:42:45;1.50;;;1.40;;
15055;SDS011;7626;42.674;23.284;2024-03-08T03:45:13;1.30;;;1.20;;
15055;SDS011;7626;42.674;23.284;2024-03-08T03:47:46;1.43;;;1.20;;
15055;SDS011;7626;42.674;23.284;2024-03-08T03:50:14;1.17;;;1.07;;
15055;SDS011;7626;42.674;23.284;2024-03-08T03:52:40;1.20;;;1.10;;
15055;SDS011;7626;42.674;23.284;2024-03-08T03:55:08;2.23;;;1.30;;
15055;SDS011;7626;42.674;23.284;2024-03-08T03:57:37;1.20;;;1.00;;
15055;SDS011;7626;42.674;23.284;2024-03-08T04:00:07;1.30;;;1.10;;
15055;SDS011;7626;42.674;23.284;2024-03-08T04:02:36;1.43;;;1.20;;
15055;SDS011;7626;42.674;23.284;2024-03-08T04:05:07;1.73;;;1.10;;
15055;SDS011;7626;42.674;23.284;2024-03-08T04:07:34;0.93;;;0.90;;
15055;SDS011;7626;42.674;23.284;2024-03-08T04:10:03;1.20;;;1.10;;
15055;SDS011;7626;42.674;23.284;2024-03-08T04:12:32;1.20;;;1.10;;
15055;SDS011;7626;42.674;23.284;2024-03-08T04:15:00;1.23;;;1.13;;
15055;SDS011;7626;42.674;23.284;2024-03-08T04:17:27;1.33;;;1.23;;
15055;SDS011;7626;42.674;23.284;2024-03-08T04:19:53;1.33;;;1.00;;
15055;SDS011;7626;42.674;23.284;2024-03-08T04:22:23;1.20;;;1.00;;
15055;SDS011;7626;42.674;23.284;2024-03-08T04:24:50;2.10;;;1.37;;
15055;SDS011;7626;42.674;23.284;2024-03-08T04:27:17;1.23;;;1.13;;
15055;SDS011;7626;42.674;23.284;2024-03-08T04:29:45;1.77;;;1.40;;
15055;SDS011;7626;42.674;23.284;2024-03-08T04:32:13;1.43;;;1.30;;
15055;SDS011;7626;42.674;23.284;2024-03-08T04:34:41;1.93;;;1.60;;
15055;SDS011;7626;42.674;23.284;2024-03-08T04:37:09;1.47;;;1.30;;
15055;SDS011;7626;42.674;23.284;2024-03-08T04:39:41;1.20;;;1.10;;
15055;SDS011;7626;42.674;23.284;2024-03-08T04:42:08;3.43;;;1.47;;
15055;SDS011;7626;42.674;23.284;2024-03-08T04:44:36;1.60;;;1.50;;
15055;SDS011;7626;42.674;23.284;2024-03-08T04:47:04;2.80;;;1.70;;
15055;SDS011;7626;42.674;23.284;2024-03-08T04:49:32;1.97;;;1.70;;
15055;SDS011;7626;42.674;23.284;2024-03-08T04:52:01;2.30;;;1.70;;
15055;SDS011;7626;42.674;23.284;2024-03-08T04:54:30;2.17;;;1.80;;
15055;SDS011;7626;42.674;23.284;2024-03-08T04:56:59;2.10;;;1.80;;
15055;SDS011;7626;42.674;23.284;2024-03-08T04:59:27;2.33;;;2.10;;
15055;SDS011;7626;42.674;23.284;2024-03-08T05:01:55;2.57;;;1.80;;
15055;SDS011;7626;42.674;23.284;2024-03-08T05:04:23;2.13;;;1.93;;
15055;SDS011;7626;42.674;23.284;2024-03-08T05:06:51;2.27;;;2.03;;
15055;SDS011;7626;42.674;23.284;2024-03-08T05:09:18;2.77;;;1.90;;
15055;SDS011;7626;42.674;23.284;2024-03-08T05:11:45;2.20;;;2.00;;
15055;SDS011;7626;42.674;23.284;2024-03-08T05:14:14;2.47;;;2.00;;
15055;SDS011;7626;42.674;23.284;2024-03-08T05:16:42;2.50;;;2.30;;
15055;SDS011;7626;42.674;23.284;2024-03-08T05:19:09;3.17;;;2.50;;
15055;SDS011;7626;42.674;23.284;2024-03-08T05:21:37;2.90;;;2.60;;
15055;SDS011;7626;42.674;23.284;2024-03-08T05:24:08;2.53;;;2.33;;
15055;SDS011;7626;42.674;23.284;2024-03-08T05:26:37;3.50;;;2.83;;
15055;SDS011;7626;42.674;23.284;2024-03-08T05:29:07;3.17;;;2.37;;
15055;SDS011;7626;42.674;23.284;2024-03-08T05:31:36;3.70;;;2.90;;
15055;SDS011;7626;42.674;23.284;2024-03-08T05:34:04;2.93;;;2.43;;
15055;SDS011;7626;42.674;23.284;2024-03-08T05:36:36;3.80;;;3.13;;
15055;SDS011;7626;42.674;23.284;2024-03-08T05:39:03;3.10;;;2.70;;
15055;SDS011;7626;42.674;23.284;2024-03-08T05:41:31;3.17;;;2.80;;
15055;SDS011;7626;42.674;23.284;2024-03-08T05:43:59;3.33;;;2.90;;
15055;SDS011;7626;42.674;23.284;2024-03-08T05:46:26;5.43;;;3.43;;
15055;SDS011;7626;42.674;23.284;2024-03-08T05:48:55;4.00;;;3.10;;
15055;SDS011;7626;42.674;23.284;2024-03-08T05:51:23;4.00;;;3.00;;
15055;SDS011;7626;42.674;23.284;2024-03-08T05:53:52;4.47;;;3.53;;
15055;SDS011;7626;42.674;23.284;2024-03-08T05:56:23;8.70;;;5.90;;
15055;SDS011;7626;42.674;23.284;2024-03-08T05:58:51;6.43;;;5.13;;
15055;SDS011;7626;42.674;23.284;2024-03-08T06:01:19;5.70;;;4.43;;
